Time;durP1;ratioP1;P1;durP2;ratioP2;P2;SDS_P1;SDS_P2;PMS_P1;PMS_P2;Temp;Humidity;BMP_temperature;BMP_pressure;BME280_temperature;BME280_humidity;BME280_pressure;Samples;Min_cycle;Max_cycle;Signal;HPM_P1;HPM_P2
2021/11/13 00:00:24;;;;;;;14.73;11.80;;;5.40;98.90;;;;;;5050398;28;20206;-91
2021/11/13 00:02:51;;;;;;;15.07;11.63;;;5.40;98.90;;;;;;5052625;28;20571;-91
2021/11/13 00:05:18;;;;;;;15.73;11.90;;;5.40;99.10;;;;;;5054966;28;20208;-92
2021/11/13 00:07:46;;;;;;;16.90;11.13;;;5.40;99.10;;;;;;5052859;28;20224;-91
2021/11/13 00:10:16;;;;;;;16.07;11.60;;;5.50;99.10;;;;;;5049174;28;20577;-91
2021/11/13 00:12:45;;;;;;;15.50;12.20;;;5.40;98.90;;;;;;5052844;28;20641;-91
2021/11/13 00:15:15;;;;;;;12.87;11.30;;;5.40;99.10;;;;;;5050530;28;20236;-91
2021/11/13 00:17:42;;;;;;;13.57;10.67;;;5.50;99.00;;;;;;5051304;28;20221;-91
2021/11/13 00:20:10;;;;;;;12.70;11.00;;;5.40;98.70;;;;;;5046132;28;20194;-91
2021/11/13 00:22:36;;;;;;;18.93;11.30;;;5.40;98.90;;;;;;5037280;28;20281;-91
2021/11/13 00:25:04;;;;;;;13.00;10.77;;;5.50;98.90;;;;;;5042145;28;20216;-91
2021/11/13 00:27:31;;;;;;;15.83;10.93;;;5.50;98.60;;;;;;5044981;28;20624;-91
2021/11/13 00:30:00;;;;;;;18.13;10.50;;;5.40;98.50;;;;;;5038759;28;20245;-91
2021/11/13 00:32:27;;;;;;;12.50;10.10;;;5.20;98.50;;;;;;5047302;28;20536;-91
2021/11/13 00:34:54;;;;;;;14.57;10.67;;;5.10;98.80;;;;;;5036000;28;20202;-91
2021/11/13 00:37:21;;;;;;;15.13;10.17;;;5.20;99.20;;;;;;5044141;28;20230;-91
2021/11/13 00:39:48;;;;;;;12.17;10.27;;;5.20;99.30;;;;;;5053023;28;20648;-90
2021/11/13 00:42:15;;;;;;;12.83;10.53;;;5.30;99.10;;;;;;5052108;28;20735;-91
2021/11/13 00:44:42;;;;;;;15.57;10.60;;;5.30;98.90;;;;;;5052932;28;20194;-90
2021/11/13 00:47:10;;;;;;;16.70;10.57;;;5.30;98.90;;;;;;5051609;28;20225;-90
2021/11/13 00:49:37;;;;;;;13.53;10.10;;;5.20;98.90;;;;;;5048479;28;20658;-91
2021/11/13 00:52:05;;;;;;;14.93;10.67;;;5.30;99.20;;;;;;5053695;28;20225;-90
2021/11/13 00:54:33;;;;;;;15.47;10.20;;;5.40;99.10;;;;;;5049676;28;20201;-90
2021/11/13 00:57:00;;;;;;;23.37;12.00;;;5.30;98.90;;;;;;5053465;28;20252;-91
2021/11/13 00:59:27;;;;;;;16.17;9.87;;;5.40;98.80;;;;;;5051609;28;20212;-91
2021/11/13 01:01:54;;;;;;;13.57;10.43;;;5.30;98.70;;;;;;5047025;28;20605;-91
2021/11/13 01:04:22;;;;;;;13.60;11.33;;;5.20;99.10;;;;;;5052459;28;20210;-91
2021/11/13 01:06:49;;;;;;;15.27;10.97;;;5.30;99.30;;;;;;5045063;28;20589;-91
2021/11/13 01:09:16;;;;;;;21.37;10.90;;;5.40;99.20;;;;;;5053160;28;20271;-91
2021/11/13 01:11:43;;;;;;;15.60;10.40;;;5.30;99.30;;;;;;5054836;28;20193;-91
2021/11/13 01:14:10;;;;;;;20.23;11.10;;;5.30;99.50;;;;;;5051633;28;20517;-91
2021/11/13 01:16:37;;;;;;;13.93;10.60;;;5.20;99.20;;;;;;5054357;28;20198;-91
2021/11/13 01:19:05;;;;;;;50.77;12.03;;;5.40;99.40;;;;;;5044084;28;20223;-91
2021/11/13 01:21:33;;;;;;;131.77;13.83;;;5.30;99.10;;;;;;5049642;28;20206;-91
2021/11/13 01:24:00;;;;;;;66.00;12.00;;;5.30;99.00;;;;;;5051350;28;20198;-90
2021/11/13 01:26:27;;;;;;;21.10;10.50;;;5.10;99.00;;;;;;5050025;28;20221;-90
2021/11/13 01:28:56;;;;;;;17.87;11.43;;;5.10;99.40;;;;;;5051358;28;20614;-90
2021/11/13 01:31:23;;;;;;;18.83;10.80;;;5.20;99.50;;;;;;5049503;28;20544;-91
2021/11/13 01:33:55;;;;;;;79.03;12.60;;;5.30;99.40;;;;;;5047839;28;20700;-91
2021/11/13 01:36:23;;;;;;;52.27;11.07;;;5.20;99.10;;;;;;5048417;28;20367;-90
2021/11/13 01:38:54;;;;;;;25.13;10.13;;;5.10;99.50;;;;;;5048962;28;20225;-90
2021/11/13 01:41:21;;;;;;;12.73;10.07;;;5.20;99.10;;;;;;5045293;28;20213;-90
2021/11/13 01:43:49;;;;;;;15.23;9.93;;;5.20;99.20;;;;;;5044672;28;20226;-90
2021/11/13 01:46:16;;;;;;;14.40;9.53;;;5.20;99.20;;;;;;5055808;28;20228;-90
2021/11/13 01:48:42;;;;;;;14.73;9.60;;;5.20;99.00;;;;;;5047953;28;20217;-90
2021/11/13 01:51:18;;;;;;;14.53;10.30;;;5.20;99.10;;;;;;5052728;28;20205;-91
2021/11/13 01:53:46;;;;;;;20.60;9.53;;;5.20;98.90;;;;;;5053399;28;20688;-90
2021/11/13 01:56:19;;;;;;;24.23;9.47;;;5.20;98.90;;;;;;5050359;28;20194;-90
2021/11/13 01:58:47;;;;;;;28.67;10.00;;;5.30;98.60;;;;;;5050198;28;20237;-90
2021/11/13 02:01:14;;;;;;;30.80;9.43;;;5.10;98.40;;;;;;5055806;28;20289;-90
2021/11/13 02:03:41;;;;;;;13.60;9.17;;;5.10;98.70;;;;;;5057385;28;20236;-90
2021/11/13 02:06:08;;;;;;;15.80;9.23;;;5.10;99.00;;;;;;5055004;28;20204;-90
2021/11/13 02:08:35;;;;;;;12.77;8.80;;;5.10;98.80;;;;;;5056121;28;20229;-90
2021/11/13 02:11:02;;;;;;;83.20;10.20;;;5.20;98.90;;;;;;5055250;28;20264;-90
2021/11/13 02:13:30;;;;;;;47.57;10.23;;;5.00;98.30;;;;;;5058137;28;20234;-89
2021/11/13 02:15:57;;;;;;;52.17;9.93;;;4.90;98.70;;;;;;5054771;28;20208;-90
2021/11/13 02:18:24;;;;;;;48.67;9.73;;;4.80;99.00;;;;;;5055027;28;20233;-89
2021/11/13 02:20:52;;;;;;;11.70;8.80;;;4.80;99.20;;;;;;5046676;28;20206;-90
2021/11/13 02:23:21;;;;;;;41.83;9.60;;;4.90;99.50;;;;;;5052238;28;20560;-91
2021/11/13 02:25:50;;;;;;;22.60;8.20;;;5.00;99.10;;;;;;5054663;28;20585;-90
2021/11/13 02:28:19;;;;;;;19.43;8.50;;;5.10;98.90;;;;;;5056215;28;20226;-90
2021/11/13 02:30:47;;;;;;;46.50;9.80;;;5.10;98.80;;;;;;5054617;28;20221;-90
2021/11/13 02:33:15;;;;;;;32.37;9.50;;;5.10;98.40;;;;;;5050217;28;20236;-91
2021/11/13 02:35:43;;;;;;;15.80;8.23;;;5.00;98.60;;;;;;5051256;28;20273;-91
2021/11/13 02:38:13;;;;;;;14.07;8.57;;;5.10;98.90;;;;;;5054736;28;20221;-91
2021/11/13 02:40:41;;;;;;;15.63;8.70;;;5.20;98.60;;;;;;5056466;28;20683;-90
2021/11/13 02:43:10;;;;;;;27.63;8.90;;;5.20;98.40;;;;;;5052558;28;20235;-90
2021/11/13 02:45:37;;;;;;;14.87;9.57;;;5.20;98.30;;;;;;5055667;28;20213;-90
2021/11/13 02:48:05;;;;;;;19.67;8.27;;;5.20;98.60;;;;;;5052187;28;20228;-90
2021/11/13 02:50:32;;;;;;;13.70;8.67;;;5.20;98.40;;;;;;5053800;28;20232;-90
2021/11/13 02:53:03;;;;;;;13.20;9.00;;;5.30;98.40;;;;;;5055536;28;20221;-89
2021/11/13 02:55:32;;;;;;;28.07;9.83;;;5.30;98.40;;;;;;5056542;28;20209;-90
2021/11/13 02:57:58;;;;;;;46.93;9.43;;;5.20;98.30;;;;;;5056205;28;20214;-90
2021/11/13 03:00:29;;;;;;;38.80;10.33;;;5.10;98.60;;;;;;5055084;28;20210;-90
2021/11/13 03:02:56;;;;;;;16.27;9.77;;;5.00;99.10;;;;;;5054278;28;20226;-90
2021/11/13 03:05:25;;;;;;;14.10;9.60;;;5.10;99.50;;;;;;5052693;28;20205;-90
2021/11/13 03:07:53;;;;;;;24.37;9.93;;;5.30;99.30;;;;;;5053468;28;20249;-90
2021/11/13 03:10:21;;;;;;;53.60;10.50;;;5.20;99.00;;;;;;5053329;28;20300;-91
2021/11/13 03:12:49;;;;;;;38.77;10.77;;;5.10;99.00;;;;;;5050529;28;20233;-90
2021/11/13 03:15:19;;;;;;;22.23;10.50;;;5.10;99.30;;;;;;5060547;28;20194;-91
2021/11/13 03:17:48;;;;;;;18.83;9.53;;;5.10;99.50;;;;;;5055546;28;20236;-90
2021/11/13 03:20:19;;;;;;;18.97;11.37;;;5.30;99.50;;;;;;5052927;28;20202;-90
2021/11/13 03:22:46;;;;;;;15.53;10.93;;;5.40;99.30;;;;;;5052513;28;20224;-89
2021/11/13 03:25:15;;;;;;;27.20;11.70;;;5.30;99.00;;;;;;5055503;28;20561;-90
2021/11/13 03:27:47;;;;;;;18.30;10.90;;;5.40;99.20;;;;;;5045236;28;20221;-90
2021/11/13 03:30:16;;;;;;;21.87;11.77;;;5.30;99.20;;;;;;5051041;28;20313;-90
2021/11/13 03:32:44;;;;;;;18.17;11.43;;;5.30;99.40;;;;;;5047367;28;20226;-90
2021/11/13 03:35:14;;;;;;;17.17;12.50;;;5.30;99.50;;;;;;5053985;28;20224;-90
2021/11/13 03:37:41;;;;;;;15.07;11.30;;;5.50;99.50;;;;;;5045939;28;20312;-91
2021/11/13 03:40:09;;;;;;;13.83;10.23;;;5.50;99.30;;;;;;5053909;28;20193;-90
2021/11/13 03:42:36;;;;;;;14.47;10.30;;;5.60;99.20;;;;;;5052793;28;20213;-90
2021/11/13 03:45:05;;;;;;;13.70;10.10;;;5.60;98.90;;;;;;5048373;28;20198;-90
2021/11/13 03:47:34;;;;;;;13.30;10.43;;;5.70;98.60;;;;;;5053251;28;20985;-90
2021/11/13 03:50:01;;;;;;;15.10;10.80;;;5.70;98.60;;;;;;5051832;28;20222;-90
2021/11/13 03:52:28;;;;;;;18.37;10.83;;;5.70;98.50;;;;;;5050472;28;20228;-90
2021/11/13 03:54:54;;;;;;;18.40;10.07;;;5.60;98.50;;;;;;5055712;28;20309;-90
2021/11/13 03:57:21;;;;;;;16.67;10.50;;;5.50;98.50;;;;;;5050991;28;20234;-90
2021/11/13 03:59:48;;;;;;;16.20;11.00;;;5.60;98.70;;;;;;5053316;28;20202;-90
2021/11/13 04:02:16;;;;;;;24.53;10.07;;;5.60;98.80;;;;;;5047557;28;20222;-90
2021/11/13 04:04:44;;;;;;;17.67;10.73;;;5.50;98.60;;;;;;5046677;28;20202;-90
2021/11/13 04:07:12;;;;;;;15.57;10.73;;;5.50;98.80;;;;;;5054150;28;20224;-91
2021/11/13 04:09:39;;;;;;;75.97;12.10;;;5.60;98.80;;;;;;5042707;28;20253;-90
2021/11/13 04:12:09;;;;;;;18.87;10.47;;;5.50;98.40;;;;;;5051041;28;20233;-90
2021/11/13 04:14:39;;;;;;;49.13;11.80;;;5.50;98.70;;;;;;5052043;28;20567;-90
2021/11/13 04:17:06;;;;;;;20.10;10.33;;;5.30;98.40;;;;;;5052990;28;20236;-90
2021/11/13 04:19:33;;;;;;;14.33;9.80;;;5.30;98.90;;;;;;5049139;28;20206;-90
2021/11/13 04:22:01;;;;;;;14.63;10.63;;;5.40;99.10;;;;;;5052252;28;20601;-91
2021/11/13 04:24:28;;;;;;;13.53;9.43;;;5.40;99.00;;;;;;5052704;28;20206;-89
2021/11/13 04:26:56;;;;;;;41.63;11.07;;;5.50;98.70;;;;;;5051172;28;20227;-89
2021/11/13 04:29:23;;;;;;;25.67;9.87;;;5.50;98.50;;;;;;5050018;28;20206;-89
2021/11/13 04:31:50;;;;;;;29.03;10.10;;;5.40;98.60;;;;;;5050752;28;20236;-90
2021/11/13 04:34:21;;;;;;;16.40;10.27;;;5.40;98.60;;;;;;5053580;28;20654;-90
2021/11/13 04:36:52;;;;;;;18.87;10.13;;;5.40;98.90;;;;;;5050906;28;20309;-90
2021/11/13 04:39:22;;;;;;;23.60;10.30;;;5.50;98.80;;;;;;5052399;28;20570;-90
2021/11/13 04:41:50;;;;;;;15.43;10.23;;;5.50;98.60;;;;;;5049267;28;20225;-90
2021/11/13 04:44:18;;;;;;;14.23;10.20;;;5.50;98.70;;;;;;5053243;28;20226;-89
2021/11/13 04:46:45;;;;;;;36.77;10.67;;;5.50;98.70;;;;;;5051879;28;20700;-90
2021/11/13 04:49:12;;;;;;;16.57;9.47;;;5.50;98.60;;;;;;5049934;28;20198;-89
2021/11/13 04:51:39;;;;;;;24.27;10.23;;;5.60;98.60;;;;;;5044571;28;20217;-90
2021/11/13 04:54:06;;;;;;;30.67;9.33;;;5.60;98.60;;;;;;5053224;28;20687;-90
2021/11/13 04:56:35;;;;;;;41.33;10.43;;;5.50;98.30;;;;;;5044057;28;20410;-91
2021/11/13 04:59:02;;;;;;;32.07;9.53;;;5.50;98.30;;;;;;5045752;28;20202;-90
2021/11/13 05:01:29;;;;;;;14.63;9.90;;;5.40;98.70;;;;;;5050808;28;20202;-90
2021/11/13 05:03:55;;;;;;;41.00;10.13;;;5.40;98.80;;;;;;5047702;28;20208;-90
2021/11/13 05:06:22;;;;;;;18.27;10.47;;;5.40;98.80;;;;;;5050729;28;20206;-89
2021/11/13 05:08:49;;;;;;;27.63;10.47;;;5.50;98.80;;;;;;5056851;28;20220;-90
2021/11/13 05:11:17;;;;;;;23.20;10.57;;;5.50;98.80;;;;;;5052531;28;20233;-90
2021/11/13 05:13:45;;;;;;;36.50;10.07;;;5.40;98.90;;;;;;5053724;28;20230;-91
2021/11/13 05:16:12;;;;;;;17.43;9.73;;;5.40;99.00;;;;;;5054663;28;20197;-89
2021/11/13 05:18:39;;;;;;;30.77;10.43;;;5.40;99.00;;;;;;5052676;28;20217;-90
2021/11/13 05:21:06;;;;;;;77.53;12.27;;;5.50;99.00;;;;;;5054082;28;20198;-89
2021/11/13 05:23:33;;;;;;;40.80;11.80;;;5.40;99.00;;;;;;5053352;28;20225;-90
2021/11/13 05:26:00;;;;;;;22.43;10.80;;;5.40;99.20;;;;;;5053827;28;20198;-90
2021/11/13 05:28:27;;;;;;;51.40;11.67;;;5.50;99.40;;;;;;5051128;28;20222;-91
2021/11/13 05:30:56;;;;;;;61.57;12.50;;;5.40;99.10;;;;;;5054952;28;20232;-90
2021/11/13 05:33:24;;;;;;;31.63;10.73;;;5.40;99.40;;;;;;5057810;28;20245;-90
2021/11/13 05:35:51;;;;;;;29.37;11.33;;;5.40;99.50;;;;;;5057961;28;20200;-90
2021/11/13 05:38:18;;;;;;;41.93;11.07;;;5.50;99.40;;;;;;5059486;28;20217;-90
2021/11/13 05:40:45;;;;;;;15.73;10.20;;;5.50;99.30;;;;;;5052444;28;20288;-90
2021/11/13 05:43:12;;;;;;;14.50;10.10;;;5.60;99.20;;;;;;5057264;28;20229;-90
2021/11/13 05:45:39;;;;;;;15.40;10.07;;;5.50;99.10;;;;;;5058319;28;20198;-89
2021/11/13 05:48:08;;;;;;;15.97;9.63;;;5.60;99.00;;;;;;5057720;28;20228;-90
2021/11/13 05:50:35;;;;;;;20.90;9.93;;;5.50;98.90;;;;;;5062195;28;20228;-90
2021/11/13 05:53:02;;;;;;;17.10;9.17;;;5.60;98.90;;;;;;5057528;28;20229;-90
2021/11/13 05:55:29;;;;;;;21.50;9.30;;;5.50;98.90;;;;;;5059089;28;20230;-89
2021/11/13 05:57:57;;;;;;;17.93;8.77;;;5.40;99.00;;;;;;5058248;28;20280;-90
2021/11/13 06:00:25;;;;;;;13.13;8.87;;;5.30;99.10;;;;;;5056816;28;20201;-90
2021/11/13 06:02:53;;;;;;;27.53;9.67;;;5.30;99.30;;;;;;5055408;28;20218;-90
2021/11/13 06:05:21;;;;;;;46.87;9.90;;;5.30;99.30;;;;;;5067109;28;20212;-90
2021/11/13 06:07:49;;;;;;;19.67;8.83;;;5.20;99.10;;;;;;5056094;28;20236;-89
2021/11/13 06:10:17;;;;;;;59.70;9.60;;;5.20;99.30;;;;;;5055779;28;20229;-89
2021/11/13 06:12:44;;;;;;;105.77;11.73;;;5.20;99.10;;;;;;5054434;28;20221;-90
2021/11/13 06:15:12;;;;;;;29.10;9.13;;;5.10;99.20;;;;;;5053213;28;20190;-90
2021/11/13 06:17:42;;;;;;;45.07;9.47;;;5.10;99.30;;;;;;5064236;28;20226;-90
2021/11/13 06:20:10;;;;;;;25.47;8.17;;;5.20;99.30;;;;;;5059444;28;20291;-90
2021/11/13 06:22:39;;;;;;;17.30;8.37;;;5.20;99.10;;;;;;5054702;28;20646;-90
2021/11/13 06:25:08;;;;;;;20.90;8.30;;;5.10;99.10;;;;;;5058998;28;20214;-90
2021/11/13 06:27:35;;;;;;;22.03;8.37;;;5.10;99.00;;;;;;5056060;28;20701;-90
2021/11/13 06:30:03;;;;;;;14.23;8.23;;;5.10;99.00;;;;;;5047406;28;20216;-90
2021/11/13 06:32:30;;;;;;;33.60;8.57;;;5.20;99.00;;;;;;5055771;28;20232;-90
2021/11/13 06:34:59;;;;;;;14.63;8.63;;;5.30;98.80;;;;;;5058651;28;20808;-90
2021/11/13 06:37:26;;;;;;;34.50;8.13;;;5.10;98.60;;;;;;5055394;28;20225;-90
2021/11/13 06:39:54;;;;;;;87.63;9.77;;;5.10;98.60;;;;;;5059282;28;20206;-90
2021/11/13 06:42:21;;;;;;;23.73;8.57;;;5.10;98.50;;;;;;5058374;28;20297;-89
2021/11/13 06:44:49;;;;;;;13.67;7.67;;;5.10;98.90;;;;;;5056479;28;20198;-89
2021/11/13 06:47:16;;;;;;;22.23;8.73;;;5.10;98.70;;;;;;5051747;28;20599;-89
2021/11/13 06:49:42;;;;;;;13.83;8.33;;;5.10;98.50;;;;;;5049955;28;20204;-89
2021/11/13 06:52:09;;;;;;;19.47;7.83;;;5.20;98.80;;;;;;5054629;28;20240;-90
2021/11/13 06:54:36;;;;;;;12.97;7.50;;;5.20;98.20;;;;;;5058663;28;20204;-90
2021/11/13 06:57:09;;;;;;;93.93;9.10;;;5.20;98.10;;;;;;5054272;28;20282;-88
2021/11/13 06:59:36;;;;;;;19.13;7.80;;;4.90;97.70;;;;;;5056740;28;20310;-88
2021/11/13 07:02:04;;;;;;;21.27;7.80;;;4.80;98.50;;;;;;5059621;28;20285;-90
2021/11/13 07:04:31;;;;;;;33.23;7.83;;;4.80;98.80;;;;;;5056434;28;20285;-90
2021/11/13 07:06:58;;;;;;;149.43;11.70;;;5.00;98.00;;;;;;5056565;28;20297;-89
2021/11/13 07:09:25;;;;;;;38.90;8.03;;;4.90;97.60;;;;;;5053792;28;20217;-89
2021/11/13 07:11:52;;;;;;;8.73;7.70;;;4.80;98.00;;;;;;5054761;28;20240;-90
2021/11/13 07:14:21;;;;;;;14.43;7.20;;;5.00;98.10;;;;;;5056210;28;20610;-90
2021/11/13 07:16:48;;;;;;;43.23;8.33;;;4.80;97.60;;;;;;5059913;28;20202;-90
2021/11/13 07:19:15;;;;;;;11.13;7.17;;;4.70;97.50;;;;;;5057610;28;20201;-90
2021/11/13 07:21:42;;;;;;;9.57;6.33;;;4.70;97.60;;;;;;5049650;28;20210;-92
2021/11/13 07:24:10;;;;;;;25.60;6.80;;;4.90;97.20;;;;;;5059110;28;20204;-91
2021/11/13 07:26:38;;;;;;;8.53;6.30;;;4.90;97.00;;;;;;5056238;28;20297;-90
2021/11/13 07:29:07;;;;;;;7.30;6.13;;;5.10;96.70;;;;;;5057985;28;20224;-90
2021/11/13 07:31:36;;;;;;;11.73;6.00;;;5.20;96.20;;;;;;5055140;28;20224;-89
2021/11/13 07:34:03;;;;;;;12.23;6.00;;;5.20;96.00;;;;;;5057662;28;20198;-92
2021/11/13 07:36:30;;;;;;;13.37;6.07;;;5.30;95.90;;;;;;5055114;28;20573;-90
2021/11/13 07:38:57;;;;;;;23.17;6.30;;;5.40;95.20;;;;;;5057566;28;20202;-92
2021/11/13 07:41:24;;;;;;;13.17;6.00;;;5.50;95.20;;;;;;5054959;28;20195;-91
2021/11/13 07:43:52;;;;;;;16.80;6.07;;;5.40;95.20;;;;;;5050888;28;20222;-91
2021/11/13 07:46:19;;;;;;;7.03;5.70;;;5.40;94.60;;;;;;5053081;28;20266;-93
2021/11/13 07:48:48;;;;;;;25.73;5.90;;;5.20;95.10;;;;;;5056732;28;20229;-92
2021/11/13 07:51:18;;;;;;;16.57;5.77;;;5.10;94.40;;;;;;5054786;28;20222;-93
2021/11/13 07:53:45;;;;;;;13.67;5.73;;;4.70;95.00;;;;;;5051451;28;20318;-93
2021/11/13 07:56:12;;;;;;;16.37;6.27;;;4.80;95.20;;;;;;5045126;28;20746;-91
2021/11/13 07:58:40;;;;;;;7.03;5.23;;;4.60;95.60;;;;;;5052073;28;20679;-93
2021/11/13 08:01:07;;;;;;;5.17;4.67;;;4.70;95.00;;;;;;5058287;28;20196;-89
2021/11/13 08:03:34;;;;;;;5.40;4.73;;;4.80;95.00;;;;;;5066808;28;20232;-93
2021/11/13 08:06:07;;;;;;;5.23;4.73;;;4.90;95.10;;;;;;5053977;28;20670;-90
2021/11/13 08:08:34;;;;;;;5.20;4.70;;;5.00;95.10;;;;;;5058028;28;20263;-90
2021/11/13 08:11:02;;;;;;;5.73;5.13;;;5.00;94.80;;;;;;5051483;28;20243;-93
2021/11/13 08:13:29;;;;;;;6.13;5.53;;;4.90;94.70;;;;;;5043480;28;20238;-92
2021/11/13 08:15:56;;;;;;;5.60;5.00;;;4.90;95.00;;;;;;5044084;28;20198;-91
2021/11/13 08:18:23;;;;;;;5.90;5.30;;;4.90;95.10;;;;;;5043940;28;20250;-91
2021/11/13 08:20:50;;;;;;;6.07;5.03;;;4.80;95.00;;;;;;5047085;28;20197;-91
2021/11/13 08:23:19;;;;;;;8.70;5.83;;;4.80;95.10;;;;;;5053029;28;20218;-94
2021/11/13 08:32:20;;;;;;;6.23;4.80;;;5.20;95.10;;;;;;5014225;28;20246;-94
2021/11/13 08:34:47;;;;;;;7.70;5.00;;;5.40;95.00;;;;;;5015916;28;20210;-93
2021/11/13 08:37:14;;;;;;;5.43;4.90;;;5.60;94.00;;;;;;5060103;28;20190;-93
2021/11/13 09:00:13;;;;;;;7.10;5.70;;;6.20;93.70;;;;;;5095943;28;20222;-95
2021/11/13 09:12:51;;;;;;;7.47;5.13;;;7.70;91.50;;;;;;5022338;28;20719;-95
2021/11/13 09:18:44;;;;;;;5.85;4.88;;;8.60;88.00;;;;;;5054329;28;20277;-92
2021/11/13 09:34:08;;;;;;;6.75;6.07;;;9.00;84.50;;;;;;4972408;28;20318;-93
2021/11/13 09:36:50;;;;;;;6.53;5.80;;;9.20;83.70;;;;;;4963242;28;20292;-94
2021/11/13 09:45:21;;;;;;;8.70;6.30;;;9.20;84.50;;;;;;5050143;28;20191;-93
2021/11/13 09:47:50;;;;;;;8.45;6.68;;;8.90;84.50;;;;;;5191176;22;20229;-93
2021/11/13 09:51:09;;;;;;;8.63;6.00;;;8.90;85.00;;;;;;5080144;28;20265;-91
2021/11/13 09:56:20;;;;;;;9.18;6.72;;;8.80;85.90;;;;;;5077460;28;20218;-92
2021/11/13 09:58:46;;;;;;;8.18;6.68;;;8.70;88.20;;;;;;5085030;28;20638;-93
2021/11/13 10:01:14;;;;;;;8.15;6.82;;;8.70;88.30;;;;;;5086997;28;20205;-93
2021/11/13 10:03:43;;;;;;;9.30;7.15;;;8.50;88.40;;;;;;5083062;28;20202;-93
2021/11/13 10:06:13;;;;;;;8.45;6.47;;;8.50;90.20;;;;;;5068173;28;20198;-92
2021/11/13 10:09:00;;;;;;;12.18;6.75;;;8.50;89.40;;;;;;5073018;28;20243;-93
2021/11/13 10:20:24;;;;;;;9.38;7.38;;;8.20;90.30;;;;;;5069593;28;20247;-93
2021/11/13 10:23:19;;;;;;;7.97;6.80;;;8.10;90.30;;;;;;5061961;28;20221;-93
2021/11/13 10:28:50;;;;;;;7.60;6.22;;;8.30;91.40;;;;;;5068421;28;20228;-93
2021/11/13 10:34:11;;;;;;;7.70;6.80;;;8.50;93.10;;;;;;5057674;28;20197;-92
2021/11/13 10:39:24;;;;;;;8.45;7.15;;;8.40;88.60;;;;;;5075143;28;20216;-93
2021/11/13 10:44:41;;;;;;;10.13;7.90;;;8.40;90.10;;;;;;5069116;28;20225;-92
2021/11/13 10:47:13;;;;;;;10.55;7.68;;;8.20;90.30;;;;;;5071426;28;20232;-91
2021/11/13 10:49:40;;;;;;;11.27;9.30;;;8.20;90.30;;;;;;5070766;28;20212;-91
2021/11/13 10:52:08;;;;;;;43.55;32.28;;;8.30;90.30;;;;;;5072040;28;20224;-92
2021/11/13 10:54:37;;;;;;;19.75;15.52;;;8.70;91.20;;;;;;5071507;28;20731;-91
2021/11/13 11:00:17;;;;;;;12.88;10.35;;;9.10;86.90;;;;;;5098909;28;20201;-90
2021/11/13 11:02:44;;;;;;;19.58;15.45;;;9.20;88.30;;;;;;5108181;28;20230;-92
2021/11/13 11:07:56;;;;;;;11.23;8.90;;;9.80;85.10;;;;;;5104759;28;20225;-92
2021/11/13 11:10:39;;;;;;;11.65;8.52;;;9.70;83.70;;;;;;5104978;28;20231;-93
2021/11/13 11:13:07;;;;;;;12.95;10.18;;;9.60;82.30;;;;;;5086924;28;20229;-93
2021/11/13 11:16:03;;;;;;;10.93;8.18;;;9.80;84.10;;;;;;5083682;28;20269;-92
2021/11/13 11:25:29;;;;;;;10.38;8.05;;;10.10;82.40;;;;;;5050277;28;20201;-93
2021/11/13 11:44:27;;;;;;;10.43;8.18;;;10.80;80.00;;;;;;5057923;28;20201;-93
2021/11/13 11:55:43;;;;;;;13.70;9.43;;;11.20;68.00;;;;;;5066718;28;20213;-91
2021/11/13 13:21:06;;;;;;;13.40;10.63;;;8.80;91.00;;;;;;5051709;28;20193;-92
2021/11/13 13:24:12;;;;;;;13.70;10.10;;;8.90;91.40;;;;;;5046525;28;20183;-93
2021/11/13 13:33:13;;;;;;;13.23;11.00;;;8.90;91.80;;;;;;5024646;28;20231;-92
2021/11/13 13:35:48;;;;;;;14.00;11.40;;;8.90;91.80;;;;;;5005143;28;20223;-92
2021/11/13 13:41:14;;;;;;;14.93;11.02;;;9.00;92.00;;;;;;5045448;28;20225;-90
2021/11/13 13:43:43;;;;;;;15.05;11.57;;;8.90;92.20;;;;;;5047391;28;20731;-92
2021/11/13 13:59:42;;;;;;;13.00;11.15;;;8.80;94.10;;;;;;5022794;28;21062;-93
2021/11/13 14:02:11;;;;;;;14.85;11.27;;;8.80;94.10;;;;;;5072203;28;20766;-93
2021/11/13 14:07:51;;;;;;;15.00;12.00;;;8.70;94.50;;;;;;5071323;28;20236;-93
2021/11/13 14:10:19;;;;;;;17.25;12.20;;;8.60;94.50;;;;;;5078536;28;20276;-93
2021/11/13 14:15:53;;;;;;;15.95;12.02;;;8.50;95.10;;;;;;5075285;28;20201;-93
2021/11/13 14:21:02;;;;;;;17.60;12.35;;;8.60;95.50;;;;;;5068792;28;20288;-93
2021/11/13 14:29:06;;;;;;;14.18;11.35;;;8.80;95.90;;;;;;5054481;28;20233;-91
2021/11/13 14:34:17;;;;;;;14.98;12.00;;;8.60;95.80;;;;;;5073786;28;20657;-92
2021/11/13 14:39:31;;;;;;;15.57;12.27;;;8.50;96.40;;;;;;5064994;28;20536;-93
2021/11/13 14:42:00;;;;;;;16.83;12.00;;;8.40;96.60;;;;;;5073904;28;20213;-92
2021/11/13 14:56:32;;;;;;;16.15;11.98;;;8.20;98.30;;;;;;5610501;22;20233;-91
2021/11/13 14:59:04;;;;;;;16.60;12.77;;;8.20;98.30;;;;;;5050762;28;20237;-91
2021/11/13 15:05:03;;;;;;;16.90;11.93;;;8.00;99.00;;;;;;5060539;28;20182;-91
2021/11/13 15:10:23;;;;;;;15.02;11.82;;;8.00;99.40;;;;;;5060460;28;20632;-91
2021/11/13 15:12:52;;;;;;;16.77;11.85;;;8.00;99.50;;;;;;5056856;28;20673;-90
2021/11/13 15:15:19;;;;;;;16.02;11.70;;;7.90;99.90;;;;;;5059025;28;20634;-91
2021/11/13 15:17:47;;;;;;;18.55;12.10;;;8.00;99.80;;;;;;5060093;28;20293;-91
2021/11/13 15:20:19;;;;;;;16.65;11.50;;;8.00;99.90;;;;;;5059573;28;20182;-91
2021/11/13 15:22:58;;;;;;;17.48;11.40;;;8.00;99.80;;;;;;5068169;28;20248;-92
2021/11/13 15:25:27;;;;;;;17.58;12.15;;;7.90;99.90;;;;;;5071204;28;20678;-91
2021/11/13 15:28:18;;;;;;;17.02;12.32;;;8.00;99.90;;;;;;5057795;28;20320;-89
2021/11/13 15:30:51;;;;;;;17.60;11.98;;;8.00;99.90;;;;;;5067070;28;20573;-91
2021/11/13 15:33:20;;;;;;;15.75;11.77;;;8.00;99.90;;;;;;5078118;28;20692;-91
2021/11/13 15:39:15;;;;;;;20.40;13.90;;;8.10;99.90;;;;;;5078722;28;20242;-91
2021/11/13 15:41:42;;;;;;;17.63;13.85;;;8.00;99.90;;;;;;5080750;28;20645;-91
2021/11/13 15:44:11;;;;;;;19.77;13.10;;;7.90;99.90;;;;;;5067360;28;20576;-91
2021/11/13 15:46:44;;;;;;;17.52;12.95;;;7.80;99.90;;;;;;5045900;28;20225;-91
2021/11/13 15:49:11;;;;;;;18.80;12.77;;;7.70;99.90;;;;;;5057241;28;20280;-89
2021/11/13 15:51:40;;;;;;;17.05;12.40;;;7.80;99.90;;;;;;5058597;28;20200;-91
2021/11/13 15:57:29;;;;;;;18.27;11.55;;;7.70;99.90;;;;;;5061310;28;20236;-91
2021/11/13 15:59:58;;;;;;;14.98;10.43;;;7.60;99.90;;;;;;5061120;28;20234;-89
2021/11/13 16:02:49;;;;;;;16.85;11.02;;;7.60;99.90;;;;;;5066408;28;20246;-89
2021/11/13 16:05:16;;;;;;;14.45;10.52;;;7.70;99.90;;;;;;5058010;28;20563;-92
2021/11/13 16:07:46;;;;;;;16.20;10.95;;;7.80;99.90;;;;;;5053855;28;20206;-93
2021/11/13 16:11:01;;;;;;;15.00;10.45;;;7.90;99.90;;;;;;5059745;28;20193;-93
2021/11/13 16:13:28;;;;;;;18.00;10.40;;;7.80;99.90;;;;;;5054168;28;20241;-87
2021/11/13 16:16:04;;;;;;;14.27;10.27;;;7.70;99.90;;;;;;5063093;28;20274;-86
2021/11/13 16:18:31;;;;;;;11.80;9.35;;;7.80;99.90;;;;;;5061020;28;20235;-86
2021/11/13 16:21:00;;;;;;;15.73;9.90;;;7.80;99.90;;;;;;5059312;28;20241;-89
2021/11/13 16:23:28;;;;;;;13.77;9.88;;;7.70;99.90;;;;;;5059580;28;20242;-88
2021/11/13 16:25:57;;;;;;;14.65;9.25;;;7.70;99.90;;;;;;5063479;28;20201;-89
2021/11/13 16:28:34;;;;;;;15.18;9.90;;;7.70;99.90;;;;;;5058334;28;20302;-91
2021/11/13 16:31:08;;;;;;;17.83;9.55;;;7.80;99.90;;;;;;5063440;28;20194;-90
2021/11/13 16:33:36;;;;;;;18.05;10.15;;;7.80;99.90;;;;;;5058528;28;20372;-87
2021/11/13 16:36:05;;;;;;;16.60;10.07;;;7.70;99.90;;;;;;5060355;28;20734;-90
2021/11/13 16:38:32;;;;;;;12.57;9.50;;;7.80;99.90;;;;;;5056601;28;20230;-89
2021/11/13 16:41:04;;;;;;;17.67;10.50;;;7.80;99.90;;;;;;5058870;28;20218;-87
2021/11/13 16:43:35;;;;;;;17.98;10.32;;;7.90;99.90;;;;;;5041899;28;20233;-88
2021/11/13 16:46:04;;;;;;;14.43;10.18;;;7.90;99.90;;;;;;5047786;28;20206;-89
2021/11/13 16:48:37;;;;;;;16.35;10.90;;;7.90;99.90;;;;;;5056267;28;20730;-91
2021/11/13 16:51:07;;;;;;;14.18;10.50;;;7.90;99.90;;;;;;5036469;28;20266;-90
2021/11/13 16:53:35;;;;;;;14.27;9.77;;;7.90;99.90;;;;;;5057225;28;20256;-90
2021/11/13 16:56:05;;;;;;;12.45;9.73;;;7.90;99.90;;;;;;5055232;28;20225;-89
2021/11/13 16:58:39;;;;;;;14.30;9.70;;;8.00;99.90;;;;;;5058150;28;20227;-90
2021/11/13 17:01:09;;;;;;;12.48;9.15;;;7.90;99.90;;;;;;5062530;28;20198;-89
2021/11/13 17:03:38;;;;;;;14.18;9.63;;;7.90;99.90;;;;;;5062980;28;20224;-89
2021/11/13 17:06:11;;;;;;;13.82;10.18;;;7.90;99.90;;;;;;5055473;28;20277;-88
2021/11/13 17:08:38;;;;;;;14.40;9.57;;;7.90;99.90;;;;;;5061594;28;20235;-88
2021/11/13 17:11:07;;;;;;;11.18;8.63;;;7.90;99.90;;;;;;5062218;28;20206;-90
2021/11/13 17:13:34;;;;;;;14.20;9.50;;;7.90;99.90;;;;;;5063238;28;20676;-87
2021/11/13 17:30:10;;;;;;;11.93;7.50;;;7.80;99.90;;;;;;5053823;28;20209;-95
2021/11/13 17:38:48;;;;;;;9.18;7.68;;;7.70;99.90;;;;;;5001830;28;20301;-92
2021/11/13 17:46:43;;;;;;;9.80;7.53;;;7.70;99.90;;;;;;5101778;23;20232;-90
2021/11/13 17:49:14;;;;;;;10.80;6.78;;;7.70;99.90;;;;;;5086689;28;20538;-90